Time;durP1;ratioP1;P1;durP2;ratioP2;P2;SDS_P1;SDS_P2;PMS_P1;PMS_P2;Temp;Humidity;BMP_temperature;BMP_pressure;BME280_temperature;BME280_humidity;BME280_pressure;Samples;Min_cycle;Max_cycle;Signal;HPM_P1;HPM_P2
2021/04/24 00:01:46;;;;;;;11.82;6.38;;;;;;;11.88;67.61;101265.50;5114831;28;20062;-82
2021/04/24 00:04:53;;;;;;;8.57;6.70;;;;;;;11.84;67.82;101259.50;5122913;27;20042;-81
2021/04/24 00:08:01;;;;;;;7.53;6.72;;;;;;;11.74;67.87;101256.69;5128169;27;20042;-82
2021/04/24 00:11:05;;;;;;;10.70;6.65;;;;;;;11.69;68.40;101255.34;5122698;27;20065;-82
2021/04/24 00:14:09;;;;;;;8.48;6.70;;;;;;;11.70;67.96;101252.50;5122613;27;20058;-82
2021/04/24 00:17:14;;;;;;;8.25;7.00;;;;;;;11.70;68.35;101251.69;5152065;27;20397;-83
2021/04/24 00:20:21;;;;;;;11.00;7.47;;;;;;;11.64;68.23;101255.66;5139162;27;20496;-81
2021/04/24 00:23:26;;;;;;;7.97;6.43;;;;;;;11.63;67.93;101255.75;5134853;27;20054;-82
2021/04/24 00:26:30;;;;;;;11.63;7.53;;;;;;;11.60;68.42;101245.28;5122940;27;20058;-82
2021/04/24 00:29:34;;;;;;;9.02;6.95;;;;;;;11.58;68.30;101253.44;5133695;27;20045;-83
2021/04/24 00:32:43;;;;;;;9.00;7.05;;;;;;;11.62;67.96;101254.06;5146906;27;20041;-82
2021/04/24 00:35:54;;;;;;;7.60;6.80;;;;;;;11.59;67.92;101244.41;5156134;27;20373;-82
2021/04/24 00:38:58;;;;;;;8.02;7.22;;;;;;;11.59;68.07;101246.22;5147726;27;20509;-83
2021/04/24 00:42:03;;;;;;;8.95;7.03;;;;;;;11.52;68.28;101239.63;5134975;27;20481;-83
2021/04/24 00:45:10;;;;;;;10.90;7.00;;;;;;;11.48;67.88;101233.63;5122427;28;20113;-81
2021/04/24 00:48:14;;;;;;;10.82;7.18;;;;;;;11.45;68.28;101241.94;5138832;27;20050;-82
2021/04/24 00:51:19;;;;;;;11.70;7.22;;;;;;;11.41;68.41;101243.13;5149550;27;20054;-82
2021/04/24 00:54:23;;;;;;;8.38;6.45;;;;;;;11.41;68.51;101237.75;5137819;27;20053;-82
2021/04/24 00:57:28;;;;;;;8.85;6.57;;;;;;;11.47;67.74;101234.59;5142768;27;20054;-82
2021/04/24 01:00:32;;;;;;;11.45;6.43;;;;;;;11.43;68.34;101240.34;5142674;27;20050;-82
2021/04/24 01:03:37;;;;;;;7.35;6.40;;;;;;;11.46;68.16;101240.09;5155420;27;20050;-82
2021/04/24 01:06:41;;;;;;;8.90;6.90;;;;;;;11.44;68.10;101242.91;5145471;27;20405;-82
2021/04/24 01:09:45;;;;;;;9.02;6.53;;;;;;;11.37;68.77;101227.38;5134568;28;20042;-83
2021/04/24 01:12:50;;;;;;;9.45;7.28;;;;;;;11.30;68.65;101223.44;5133988;27;20046;-82
2021/04/24 01:15:54;;;;;;;9.38;7.35;;;;;;;11.31;68.30;101235.88;5138482;27;20078;-82
2021/04/24 01:18:59;;;;;;;9.63;6.75;;;;;;;11.30;68.50;101226.13;5142496;27;20054;-82
2021/04/24 01:22:10;;;;;;;7.68;6.45;;;;;;;11.38;68.51;101229.09;5155102;27;20104;-82
2021/04/24 01:25:19;;;;;;;10.60;6.53;;;;;;;11.38;67.62;101223.72;5154945;27;20062;-82
2021/04/24 01:28:24;;;;;;;11.57;7.05;;;;;;;11.38;67.92;101229.91;5142477;27;20069;-82
2021/04/24 01:31:31;;;;;;;10.27;6.90;;;;;;;11.27;67.86;101226.34;5121547;28;20047;-82
2021/04/24 01:34:35;;;;;;;9.25;6.57;;;;;;;11.25;68.06;101229.16;5134331;27;20476;-82
2021/04/24 01:37:40;;;;;;;8.60;6.78;;;;;;;11.18;67.73;101221.69;5126297;27;20050;-83
2021/04/24 01:40:44;;;;;;;8.27;6.80;;;;;;;11.16;67.85;101226.34;5145555;27;20050;-83
2021/04/24 01:43:54;;;;;;;7.97;7.18;;;;;;;11.14;67.83;101226.44;5138591;27;20054;-82
2021/04/24 01:46:58;;;;;;;7.10;6.18;;;;;;;11.10;67.46;101224.97;5138461;27;20054;-83
2021/04/24 01:50:12;;;;;;;9.57;6.32;;;;;;;11.10;67.76;101222.28;5138079;27;20054;-81
2021/04/24 01:53:20;;;;;;;8.40;6.53;;;;;;;11.09;67.66;101217.88;5150948;27;20053;-82
2021/04/24 01:56:25;;;;;;;8.15;6.63;;;;;;;11.10;67.65;101220.47;5158681;27;19922;-82
2021/04/24 01:59:32;;;;;;;7.80;6.72;;;;;;;11.06;67.97;101216.28;5140999;27;20065;-82
2021/04/24 02:02:36;;;;;;;7.75;6.28;;;;;;;11.02;67.47;101212.13;5125045;27;20042;-82
2021/04/24 02:05:50;;;;;;;8.20;6.43;;;;;;;11.04;67.71;101220.91;5137786;27;20062;-82
2021/04/24 02:08:55;;;;;;;9.23;6.63;;;;;;;11.10;67.49;101223.13;5113254;27;20058;-82
2021/04/24 02:12:13;;;;;;;8.10;6.05;;;;;;;11.07;67.68;101220.69;5137904;27;20051;-82
2021/04/24 02:15:18;;;;;;;9.13;6.90;;;;;;;11.11;67.59;101215.91;5137509;27;20050;-82
2021/04/24 02:18:23;;;;;;;7.40;6.47;;;;;;;11.07;66.88;101209.94;5137528;27;20050;-82
2021/04/24 02:21:28;;;;;;;8.13;6.45;;;;;;;11.12;67.41;101225.69;5146477;27;20054;-82
2021/04/24 02:24:42;;;;;;;7.03;6.32;;;;;;;11.06;66.86;101224.31;5137414;27;20055;-82
2021/04/24 02:27:47;;;;;;;6.55;5.82;;;;;;;11.04;67.24;101226.28;5143989;27;20054;-82
2021/04/24 02:30:51;;;;;;;9.13;5.80;;;;;;;11.02;67.14;101222.00;5157964;27;20054;-82
2021/04/24 02:33:55;;;;;;;9.35;6.30;;;;;;;10.92;67.46;101218.28;5157888;27;20050;-82
2021/04/24 02:37:00;;;;;;;6.80;5.85;;;;;;;10.96;67.54;101212.56;5145195;27;20050;-82
2021/04/24 02:40:08;;;;;;;8.25;6.30;;;;;;;10.97;67.44;101213.44;5145244;27;20046;-82
2021/04/24 02:43:14;;;;;;;10.32;6.18;;;;;;;10.96;67.86;101217.94;5141003;27;20054;-81
2021/04/24 02:46:18;;;;;;;10.32;5.80;;;;;;;10.91;67.42;101219.28;5156754;27;20147;-82
2021/04/24 02:49:23;;;;;;;7.35;6.20;;;;;;;10.87;67.86;101218.63;5144891;27;20046;-82
2021/04/24 02:52:28;;;;;;;9.88;6.30;;;;;;;10.87;68.12;101223.16;5146744;27;20046;-82
2021/04/24 02:55:33;;;;;;;7.32;6.53;;;;;;;10.92;68.21;101220.97;5145484;27;20043;-84
2021/04/24 02:58:40;;;;;;;10.95;6.90;;;;;;;10.86;68.04;101222.28;5148909;27;20062;-83
2021/04/24 03:01:46;;;;;;;7.32;6.15;;;;;;;10.79;68.08;101217.53;5134761;27;20085;-82
2021/04/24 03:04:50;;;;;;;8.15;6.70;;;;;;;10.76;68.19;101218.59;5120233;27;20035;-83
2021/04/24 03:07:54;;;;;;;10.45;6.55;;;;;;;10.79;68.13;101220.22;5145417;27;20046;-83
2021/04/24 03:11:00;;;;;;;7.72;6.47;;;;;;;10.81;67.99;101218.25;5133320;27;20058;-83
2021/04/24 03:14:06;;;;;;;8.00;6.25;;;;;;;10.76;67.93;101213.25;5146681;27;20400;-83
2021/04/24 03:17:11;;;;;;;8.80;6.30;;;;;;;10.78;67.62;101216.66;5145383;27;20050;-83
2021/04/24 03:20:17;;;;;;;9.25;6.50;;;;;;;10.72;67.96;101211.72;5141464;27;20062;-83
2021/04/24 03:23:22;;;;;;;9.35;6.45;;;;;;;10.74;67.83;101217.00;5147667;27;20530;-83
2021/04/24 03:26:26;;;;;;;7.20;6.32;;;;;;;10.77;67.43;101216.75;5147068;27;20050;-83
2021/04/24 03:29:31;;;;;;;7.38;6.40;;;;;;;10.68;67.82;101212.06;5145049;27;20389;-83
2021/04/24 03:32:35;;;;;;;7.75;6.13;;;;;;;10.63;67.74;101212.44;5145278;27;20058;-83
2021/04/24 03:35:40;;;;;;;8.48;7.05;;;;;;;10.57;67.59;101202.13;5145765;27;20050;-82
2021/04/24 03:38:44;;;;;;;7.68;6.88;;;;;;;10.51;68.01;101210.66;5145413;27;20058;-83
2021/04/24 03:41:48;;;;;;;8.35;6.40;;;;;;;10.45;68.05;101206.59;5144082;27;20393;-82
2021/04/24 03:44:52;;;;;;;14.40;7.20;;;;;;;10.49;67.76;101207.22;5144584;27;20050;-84
2021/04/24 03:47:57;;;;;;;11.70;6.35;;;;;;;10.50;68.20;101210.75;5145187;27;20046;-82
2021/04/24 03:51:03;;;;;;;10.13;6.55;;;;;;;10.51;68.01;101202.59;5145855;27;20515;-83
2021/04/24 03:54:08;;;;;;;7.30;6.15;;;;;;;10.57;68.09;101207.50;5145898;27;20041;-82
2021/04/24 03:57:12;;;;;;;9.45;6.55;;;;;;;10.63;67.95;101209.75;5131699;27;20042;-83
2021/04/24 04:00:19;;;;;;;6.70;5.88;;;;;;;10.62;67.67;101215.19;5144946;27;20397;-83
2021/04/24 04:03:23;;;;;;;7.60;6.10;;;;;;;10.57;67.62;101206.63;5145813;27;20496;-83
2021/04/24 04:06:27;;;;;;;8.05;6.53;;;;;;;10.55;67.54;101216.63;5132941;27;20066;-83
2021/04/24 04:09:32;;;;;;;9.63;6.50;;;;;;;10.40;67.12;101214.13;5143488;27;20045;-82
2021/04/24 04:12:36;;;;;;;6.82;6.10;;;;;;;10.40;67.43;101224.00;5144652;27;20058;-84
2021/04/24 04:15:41;;;;;;;9.73;6.63;;;;;;;10.42;67.77;101230.97;5145096;27;20050;-84
2021/04/24 04:18:45;;;;;;;10.15;6.43;;;;;;;10.39;67.92;101243.78;5145841;27;20073;-83
2021/04/24 04:21:51;;;;;;;8.25;6.07;;;;;;;10.36;68.23;101238.63;5143908;27;20050;-82
2021/04/24 04:24:56;;;;;;;9.85;6.63;;;;;;;10.34;68.44;101248.59;5143611;27;20389;-83
2021/04/24 04:28:01;;;;;;;8.57;6.00;;;;;;;10.27;69.47;101250.84;5143484;27;20042;-83
2021/04/24 04:31:05;;;;;;;7.38;6.38;;;;;;;10.20;69.76;101244.22;5145523;27;20516;-83
2021/04/24 04:34:09;;;;;;;8.88;6.18;;;;;;;10.29;70.00;101248.09;5132556;27;20050;-83
2021/04/24 04:37:14;;;;;;;9.07;6.28;;;;;;;10.33;70.11;101245.06;5144249;27;20038;-83
2021/04/24 04:40:19;;;;;;;8.80;5.90;;;;;;;10.34;70.02;101245.94;5128256;27;20054;-83
2021/04/24 04:43:23;;;;;;;7.78;6.53;;;;;;;10.37;70.20;101243.84;5145035;27;20042;-84
2021/04/24 04:46:27;;;;;;;8.20;6.60;;;;;;;10.51;69.89;101247.38;5132624;27;20046;-83
2021/04/24 04:49:32;;;;;;;10.43;7.00;;;;;;;10.70;69.29;101250.41;5143688;27;20066;-83
2021/04/24 04:52:37;;;;;;;22.00;16.25;;;;;;;10.86;69.14;101248.31;5144066;27;20042;-84
2021/04/24 04:55:41;;;;;;;21.83;18.10;;;;;;;11.08;67.96;101251.09;5144734;27;20043;-84
2021/04/24 04:58:46;;;;;;;12.20;9.00;;;;;;;11.41;67.04;101250.34;5145139;27;20389;-83
2021/04/24 05:01:50;;;;;;;8.20;6.60;;;;;;;11.91;66.34;101258.03;5128135;27;20050;-83
2021/04/24 05:04:54;;;;;;;7.78;5.90;;;;;;;12.37;63.74;101253.38;5143756;27;20042;-84
2021/04/24 05:07:59;;;;;;;9.73;6.75;;;;;;;12.83;61.00;101252.31;5144154;27;20050;-83
2021/04/24 05:11:04;;;;;;;12.80;4.80;;;;;;;13.22;58.27;101240.94;5147418;27;20058;-83
2021/04/24 05:14:08;;;;;;;5.75;4.38;;;;;;;13.50;57.03;101250.22;5136430;27;20049;-84
2021/04/24 05:17:14;;;;;;;5.65;4.20;;;;;;;14.21;54.66;101243.94;5136561;27;20129;-84
2021/04/24 05:20:19;;;;;;;6.43;4.18;;;;;;;14.44;53.35;101247.31;5148296;27;20042;-84
2021/04/24 05:23:23;;;;;;;5.05;3.90;;;;;;;15.18;51.12;101248.56;5132843;27;20039;-84
2021/04/24 05:26:27;;;;;;;5.10;3.50;;;;;;;15.92;48.89;101247.78;5149307;27;20053;-84
2021/04/24 05:29:32;;;;;;;7.30;3.90;;;;;;;16.77;46.81;101248.38;5147173;27;20070;-84
2021/04/24 05:32:37;;;;;;;6.63;3.97;;;;;;;17.75;44.40;101252.88;5135133;27;20046;-84
2021/04/24 05:35:41;;;;;;;6.15;3.55;;;;;;;18.63;42.20;101261.56;5148307;27;20050;-85
2021/04/24 05:38:47;;;;;;;4.75;3.00;;;;;;;19.10;41.35;101261.84;5148766;27;20069;-85
2021/04/24 05:41:51;;;;;;;5.40;3.50;;;;;;;19.89;39.38;101253.03;5146075;27;20050;-85
2021/04/24 05:44:56;;;;;;;10.80;4.03;;;;;;;20.77;36.93;101250.03;5146438;27;20038;-85
2021/04/24 05:48:00;;;;;;;5.05;3.25;;;;;;;21.39;35.97;101247.25;5135398;27;20046;-84
2021/04/24 05:51:04;;;;;;;3.72;2.83;;;;;;;21.42;36.11;101248.75;5148774;27;20046;-84
2021/04/24 05:54:09;;;;;;;4.32;2.88;;;;;;;21.66;35.65;101245.81;5133336;27;20050;-85
2021/04/24 05:57:13;;;;;;;4.78;3.05;;;;;;;22.19;34.30;101245.66;5146932;27;20050;-82
2021/04/24 06:00:20;;;;;;;4.40;3.08;;;;;;;21.23;36.46;101247.38;5147282;27;20050;-82
2021/04/24 06:03:25;;;;;;;5.00;3.17;;;;;;;21.03;36.64;101248.84;5148350;27;20058;-84
2021/04/24 06:06:29;;;;;;;6.43;3.53;;;;;;;23.28;32.52;101248.31;5147895;27;20046;-84
2021/04/24 06:09:35;;;;;;;7.07;3.25;;;;;;;23.71;31.61;101252.75;5146225;27;20045;-83
2021/04/24 06:12:40;;;;;;;6.90;3.22;;;;;;;23.51;32.18;101242.63;5137123;27;20050;-84
2021/04/24 06:15:45;;;;;;;6.70;3.15;;;;;;;23.66;32.65;101241.53;5138053;27;20050;-78
2021/04/24 06:18:50;;;;;;;7.97;3.75;;;;;;;27.89;27.15;101238.41;5126558;27;20034;-76
2021/04/24 06:21:55;;;;;;;6.03;2.85;;;;;;;29.54;24.48;101234.25;5141598;27;20385;-84
2021/04/24 06:25:00;;;;;;;5.18;2.90;;;;;;;30.69;23.19;101234.53;5155701;27;20054;-78
2021/04/24 06:28:05;;;;;;;6.28;2.78;;;;;;;29.58;24.21;101234.59;5143765;27;20382;-80
2021/04/24 06:31:09;;;;;;;6.18;2.65;;;;;;;28.89;25.24;101238.78;5133625;27;20050;-81
2021/04/24 06:34:14;;;;;;;5.30;3.17;;;;;;;27.63;26.55;101234.78;5141496;27;20516;-79
2021/04/24 06:37:19;;;;;;;7.85;3.15;;;;;;;27.20;27.55;101233.81;5137156;27;20050;-84
2021/04/24 06:40:25;;;;;;;6.28;3.35;;;;;;;27.29;27.24;101235.22;5144257;27;20058;-82
2021/04/24 06:43:29;;;;;;;5.22;3.50;;;;;;;26.85;28.34;101243.53;5144550;27;20050;-80
2021/04/24 06:46:34;;;;;;;8.18;3.28;;;;;;;25.65;30.22;101237.63;5144688;27;20042;-77
2021/04/24 06:49:38;;;;;;;8.70;4.13;;;;;;;26.85;28.91;101249.06;5138807;27;20058;-77
2021/04/24 06:52:42;;;;;;;8.45;4.03;;;;;;;29.81;25.50;101236.59;5136854;27;20054;-80
2021/04/24 06:55:46;;;;;;;5.53;3.40;;;;;;;35.56;20.23;101236.75;5131780;27;20050;-76
2021/04/24 06:58:51;;;;;;;12.77;3.50;;;;;;;37.43;18.34;101237.94;5145064;27;20046;-78
2021/04/24 07:01:55;;;;;;;5.45;3.30;;;;;;;40.38;16.33;101234.63;5132960;27;20054;-79
2021/04/24 07:05:00;;;;;;;8.43;3.42;;;;;;;40.24;16.30;101240.25;5154849;27;20057;-78
2021/04/24 07:08:05;;;;;;;7.03;3.60;;;;;;;40.36;16.32;101242.56;5143077;27;20054;-80
2021/04/24 07:11:09;;;;;;;9.23;3.67;;;;;;;41.69;15.61;101240.19;5143770;27;20046;-82
2021/04/24 07:14:13;;;;;;;7.07;3.47;;;;;;;41.87;15.31;101239.19;5144228;27;20046;-82
2021/04/24 07:17:17;;;;;;;8.35;3.40;;;;;;;41.58;15.45;101235.97;5150299;27;20072;-81
2021/04/24 07:20:22;;;;;;;6.47;3.25;;;;;;;43.49;14.13;101238.09;5136466;27;20054;-77
2021/04/24 07:23:26;;;;;;;7.80;4.10;;;;;;;42.60;14.47;101230.94;5119875;27;20062;-81
2021/04/24 07:26:30;;;;;;;12.10;3.72;;;;;;;40.93;15.67;101241.13;5141489;27;20100;-81
2021/04/24 07:29:35;;;;;;;4.65;3.15;;;;;;;42.05;14.93;101232.47;5143511;27;20400;-80
2021/04/24 07:32:39;;;;;;;4.63;3.10;;;;;;;41.40;15.11;101230.19;5138676;27;20068;-76
2021/04/24 07:35:44;;;;;;;5.35;2.83;;;;;;;42.29;14.45;101238.63;5135989;27;20058;-78
2021/04/24 07:38:49;;;;;;;5.05;2.92;;;;;;;41.76;14.66;101235.78;5132677;27;20050;-78
2021/04/24 07:41:53;;;;;;;7.03;3.83;;;;;;;40.52;16.04;101232.72;5148869;27;20045;-76
2021/04/24 07:44:58;;;;;;;4.88;3.50;;;;;;;42.27;15.18;101232.44;5144342;27;20053;-77
2021/04/24 07:48:03;;;;;;;8.38;3.70;;;;;;;41.68;14.74;101239.34;5126880;27;20050;-78
2021/04/24 07:51:10;;;;;;;5.15;3.40;;;;;;;40.49;15.27;101251.06;5132291;27;20065;-77
2021/04/24 07:54:15;;;;;;;8.90;3.28;;;;;;;40.82;15.56;101241.31;5140775;27;20401;-76
2021/04/24 07:57:20;;;;;;;4.22;2.88;;;;;;;39.90;15.29;101249.00;5143583;27;20050;-78
2021/04/24 08:00:25;;;;;;;6.55;3.10;;;;;;;40.54;15.25;101250.13;5140585;27;20061;-76
2021/04/24 08:03:30;;;;;;;6.47;3.30;;;;;;;40.03;15.24;101239.81;5135072;27;20039;-77
2021/04/24 08:06:35;;;;;;;4.85;2.97;;;;;;;39.96;15.78;101247.78;5144525;27;20050;-76
2021/04/24 08:09:40;;;;;;;6.20;3.20;;;;;;;39.18;16.59;101238.38;5150243;27;20061;-77
2021/04/24 08:12:46;;;;;;;6.78;3.67;;;;;;;39.80;16.07;101243.59;5140201;27;20046;-79
2021/04/24 08:15:51;;;;;;;8.43;3.90;;;;;;;38.79;16.98;101242.22;5134105;27;20040;-78
2021/04/24 08:18:55;;;;;;;6.05;3.75;;;;;;;38.72;17.95;101241.72;5139968;27;20039;-75
2021/04/24 08:22:00;;;;;;;8.00;4.28;;;;;;;39.19;17.58;101240.88;5145805;27;20412;-75
2021/04/24 08:25:06;;;;;;;9.18;3.90;;;;;;;38.49;17.49;101242.59;5145252;27;20512;-80
2021/04/24 08:28:10;;;;;;;4.88;3.88;;;;;;;38.13;17.17;101230.06;5142570;27;20049;-75
2021/04/24 08:31:15;;;;;;;9.25;3.97;;;;;;;38.42;17.35;101237.31;5141342;27;20045;-78
2021/04/24 08:34:21;;;;;;;5.55;4.30;;;;;;;37.43;18.33;101237.94;5144878;27;20046;-76
2021/04/24 08:37:25;;;;;;;9.82;4.07;;;;;;;36.65;18.78;101236.09;5127371;27;20074;-76
2021/04/24 08:40:30;;;;;;;7.30;4.63;;;;;;;33.80;21.20;101231.16;5122560;27;20140;-75
2021/04/24 08:43:38;;;;;;;7.60;4.57;;;;;;;30.78;23.70;101231.09;5149751;27;20049;-76
2021/04/24 08:46:46;;;;;;;8.38;4.78;;;;;;;28.48;27.41;101237.81;5154863;27;20538;-75
2021/04/24 08:49:53;;;;;;;8.35;5.50;;;;;;;26.70;28.45;101246.56;5155248;27;20412;-75
2021/04/24 08:52:58;;;;;;;10.70;6.80;;;;;;;25.34;31.63;101248.34;5155714;27;20108;-75
2021/04/24 08:56:03;;;;;;;9.60;6.00;;;;;;;24.35;32.92;101249.84;5142690;27;20054;-74
2021/04/24 08:59:08;;;;;;;7.55;6.50;;;;;;;23.00;35.31;101255.59;5155733;27;20049;-75
2021/04/24 09:02:13;;;;;;;12.57;6.53;;;;;;;23.19;36.17;101254.94;5155577;27;20054;-75
2021/04/24 09:05:21;;;;;;;10.73;6.43;;;;;;;23.06;34.73;101246.59;5142747;27;20058;-73
2021/04/24 09:08:28;;;;;;;7.30;5.38;;;;;;;22.40;34.81;101242.16;5130585;27;20492;-74
2021/04/24 09:11:44;;;;;;;7.88;6.93;;;;;;;22.11;35.78;101248.47;5153973;27;20112;-75
2021/04/24 09:14:49;;;;;;;8.45;5.40;;;;;;;22.44;34.77;101238.84;5134261;27;20066;-82
2021/04/24 09:18:08;;;;;;;7.10;6.40;;;;;;;22.45;34.47;101239.69;5134862;28;20046;-81
2021/04/24 09:21:19;;;;;;;12.80;6.22;;;;;;;22.12;35.06;101241.13;5132691;27;20058;-84
2021/04/24 09:24:34;;;;;;;10.98;5.80;;;;;;;22.05;34.56;101235.53;5128654;28;20054;-85
2021/04/24 09:27:42;;;;;;;15.82;5.65;;;;;;;22.15;33.77;101232.53;5128596;28;20058;-84
2021/04/24 09:30:46;;;;;;;7.45;5.57;;;;;;;21.63;33.75;101227.91;5128873;28;20512;-83
2021/04/24 09:33:54;;;;;;;8.40;5.45;;;;;;;21.69;33.92;101234.53;5129219;28;20046;-84
2021/04/24 09:37:00;;;;;;;11.80;5.85;;;;;;;21.75;33.46;101220.13;5131693;28;20505;-84
2021/04/24 09:40:10;;;;;;;7.35;4.22;;;;;;;21.96;31.94;101221.13;5134361;28;20051;-81
2021/04/24 09:43:14;;;;;;;7.53;4.47;;;;;;;21.72;32.10;101224.09;5134204;28;20051;-83
2021/04/24 09:46:20;;;;;;;7.45;3.65;;;;;;;21.79;32.65;101224.19;5134304;28;20370;-83
2021/04/24 09:49:27;;;;;;;6.70;4.20;;;;;;;21.62;33.11;101219.91;5134319;28;20500;-83
2021/04/24 09:52:32;;;;;;;9.48;4.63;;;;;;;21.74;33.01;101221.16;5134329;28;20042;-83
2021/04/24 09:55:38;;;;;;;7.88;4.45;;;;;;;21.81;33.38;101211.16;5134184;27;20066;-83
2021/04/24 09:58:43;;;;;;;8.43;4.65;;;;;;;21.80;32.68;101209.50;5137890;27;20070;-83
2021/04/24 10:01:47;;;;;;;11.18;5.63;;;;;;;21.75;33.09;101217.41;5113515;27;20054;-82
2021/04/24 10:05:15;;;;;;;10.45;7.78;;;;;;;21.77;33.18;101197.03;5137965;27;20128;-83
2021/04/24 10:08:20;;;;;;;9.15;5.60;;;;;;;21.59;33.16;101195.69;5137171;27;20058;-82
2021/04/24 10:11:27;;;;;;;8.77;4.88;;;;;;;21.75;33.26;101184.59;5137679;27;20058;-82
2021/04/24 10:14:44;;;;;;;10.57;4.65;;;;;;;21.59;32.65;101176.53;5137652;27;20394;-83
2021/04/24 10:17:54;;;;;;;8.45;4.93;;;;;;;21.32;32.91;101170.66;5137463;27;20058;-83
2021/04/24 10:20:59;;;;;;;7.78;4.10;;;;;;;21.50;32.53;101172.22;5137415;27;20076;-82
2021/04/24 10:24:05;;;;;;;6.35;3.00;;;;;;;21.66;29.69;101161.97;5124655;27;20050;-83
2021/04/24 10:27:15;;;;;;;5.47;3.13;;;;;;;21.60;28.08;101157.25;5137417;27;20047;-83
2021/04/24 10:30:19;;;;;;;6.10;3.30;;;;;;;21.49;30.51;101162.31;5124705;27;20053;-83
2021/04/24 10:33:25;;;;;;;11.15;4.18;;;;;;;21.56;30.94;101150.44;5136940;27;20046;-83
2021/04/24 10:36:33;;;;;;;10.82;3.97;;;;;;;21.53;31.61;101150.81;5137071;27;20058;-82
2021/04/24 10:39:40;;;;;;;9.07;4.20;;;;;;;21.49;31.45;101141.28;5137064;27;20057;-81
2021/04/24 10:42:53;;;;;;;5.85;3.50;;;;;;;21.50;31.52;101142.16;5136710;27;20050;-82
2021/04/24 10:46:31;;;;;;;6.03;3.22;;;;;;;21.58;29.50;101136.63;5136947;27;20043;-82
2021/04/24 10:49:36;;;;;;;6.07;2.63;;;;;;;21.74;29.26;101131.81;5136705;27;20054;-81
2021/04/24 10:52:43;;;;;;;7.03;3.28;;;;;;;21.78;28.87;101129.53;5124022;27;20046;-82
2021/04/24 10:55:49;;;;;;;8.45;3.95;;;;;;;21.46;28.53;101113.50;5136356;27;20065;-80
2021/04/24 10:59:25;;;;;;;6.95;3.90;;;;;;;21.35;29.63;101118.41;5136642;27;20058;-80
2021/04/24 11:02:42;;;;;;;8.55;3.95;;;;;;;21.40;29.73;101113.19;5136553;27;20046;-80
2021/04/24 11:05:50;;;;;;;19.90;12.55;;;;;;;21.34;31.79;101113.97;5136201;27;20046;-81
2021/04/24 11:09:18;;;;;;;10.68;5.57;;;;;;;21.43;30.99;101105.69;5123335;27;20047;-79
2021/04/24 11:12:23;;;;;;;6.63;3.80;;;;;;;21.29;30.16;101102.75;5130825;27;20062;-81
2021/04/24 11:15:29;;;;;;;6.95;3.83;;;;;;;21.32;30.21;101105.13;5136255;27;20050;-81
2021/04/24 11:18:35;;;;;;;6.97;3.30;;;;;;;21.18;28.52;101092.25;5136567;27;20050;-81
2021/04/24 11:21:39;;;;;;;6.07;3.22;;;;;;;21.42;29.93;101084.88;5136263;27;20046;-81
2021/04/24 11:24:44;;;;;;;6.68;4.25;;;;;;;21.52;30.26;101079.97;5136207;27;20050;-80
2021/04/24 11:28:07;;;;;;;7.15;3.30;;;;;;;21.58;30.72;101080.06;5136086;27;20054;-81
2021/04/24 11:31:12;;;;;;;7.50;3.75;;;;;;;21.72;29.82;101072.91;5139233;27;20051;-82
2021/04/24 11:34:26;;;;;;;5.47;3.28;;;;;;;21.74;29.02;101076.28;5139139;27;20046;-83
2021/04/24 11:37:32;;;;;;;6.57;3.63;;;;;;;21.61;30.07;101067.91;5140862;27;20049;-81
2021/04/24 11:40:37;;;;;;;7.20;3.10;;;;;;;21.46;29.40;101065.19;5148988;27;20057;-80
2021/04/24 11:43:42;;;;;;;6.00;2.95;;;;;;;21.50;29.26;101058.31;5154151;27;20049;-82
2021/04/24 11:46:53;;;;;;;5.25;2.47;;;;;;;21.60;29.36;101060.75;5152842;27;20053;-83
2021/04/24 11:49:59;;;;;;;4.95;2.50;;;;;;;21.61;29.01;101060.56;5140592;27;20054;-82
2021/04/24 11:53:04;;;;;;;9.05;3.00;;;;;;;21.67;28.53;101050.78;5153132;27;20046;-82
2021/04/24 11:56:13;;;;;;;4.43;2.40;;;;;;;21.74;29.21;101048.97;5140193;27;20050;-83
2021/04/24 11:59:26;;;;;;;7.50;2.58;;;;;;;21.63;28.70;101047.56;5156186;27;20050;-81
2021/04/24 12:02:33;;;;;;;7.10;2.30;;;;;;;21.71;28.17;101036.53;5157559;27;20056;-80
2021/04/24 12:05:43;;;;;;;10.35;2.30;;;;;;;21.74;28.68;101035.31;5156640;27;20037;-81
2021/04/24 12:08:47;;;;;;;4.40;2.25;;;;;;;21.80;28.00;101029.09;5155664;27;20096;-81
2021/04/24 12:12:00;;;;;;;4.20;2.30;;;;;;;21.70;28.60;101023.88;5156069;27;20046;-80
2021/04/24 12:15:22;;;;;;;5.93;2.20;;;;;;;21.72;28.70;101026.44;5143163;27;20049;-81
2021/04/24 12:18:30;;;;;;;9.10;2.60;;;;;;;21.70;28.26;101029.34;5143202;27;20046;-80
2021/04/24 12:21:35;;;;;;;7.85;2.92;;;;;;;21.66;29.18;101022.59;5155866;27;20053;-81
2021/04/24 12:24:56;;;;;;;4.28;2.50;;;;;;;21.77;28.93;101021.25;5155709;27;20060;-80
2021/04/24 12:28:07;;;;;;;5.20;2.10;;;;;;;21.71;27.87;101024.75;5155623;27;20046;-80
2021/04/24 12:31:11;;;;;;;10.00;2.75;;;;;;;21.60;27.85;101017.91;5142914;27;20042;-81
2021/04/24 12:34:16;;;;;;;5.90;2.70;;;;;;;21.73;28.98;101009.00;5155598;27;20045;-81
2021/04/24 12:37:22;;;;;;;7.72;2.75;;;;;;;21.74;28.92;101007.97;5155572;27;20058;-80
2021/04/24 12:40:28;;;;;;;5.43;2.50;;;;;;;21.71;28.65;101011.09;5155699;27;20111;-80
2021/04/24 12:43:33;;;;;;;4.15;2.60;;;;;;;21.65;28.84;101003.66;5141196;27;20546;-81
2021/04/24 12:46:38;;;;;;;5.00;2.72;;;;;;;21.64;29.24;100999.22;5134498;27;20508;-82
2021/04/24 12:49:42;;;;;;;8.60;3.55;;;;;;;21.69;29.66;100994.88;5129082;27;20046;-82
2021/04/24 12:53:00;;;;;;;5.63;3.65;;;;;;;21.70;28.76;100991.09;5139506;27;20050;-83
2021/04/24 12:56:10;;;;;;;6.43;2.67;;;;;;;21.74;29.05;100991.56;5134222;28;20523;-82
2021/04/24 12:59:14;;;;;;;7.93;4.00;;;;;;;21.69;30.24;100975.75;5143523;27;20054;-85
2021/04/24 13:02:32;;;;;;;5.10;3.17;;;;;;;21.72;30.13;100978.13;5138143;27;20050;-85
2021/04/24 13:05:37;;;;;;;6.93;2.88;;;;;;;21.83;30.45;100961.19;5148311;27;20047;-85
2021/04/24 13:08:42;;;;;;;7.63;3.95;;;;;;;21.82;30.98;100962.25;5142085;27;20042;-85
2021/04/24 13:11:55;;;;;;;10.85;4.00;;;;;;;21.86;31.10;100952.66;5134820;28;20042;-85
2021/04/24 13:14:59;;;;;;;6.85;3.92;;;;;;;21.86;30.95;100955.38;5151545;27;20107;-86
2021/04/24 13:18:39;;;;;;;8.98;3.40;;;;;;;21.76;30.42;100949.34;5155747;27;20046;-86
2021/04/24 13:21:46;;;;;;;5.60;3.58;;;;;;;21.80;30.53;100936.16;5040162;28;20047;-86
2021/04/24 13:24:50;;;;;;;6.93;3.85;;;;;;;21.83;31.43;100938.47;5038800;28;20060;-86
2021/04/24 13:27:54;;;;;;;9.40;4.05;;;;;;;21.85;30.84;100933.72;5051860;28;20052;-87
2021/04/24 13:31:00;;;;;;;7.80;4.28;;;;;;;21.68;31.01;100922.13;5039647;28;20048;-86
2021/04/24 13:34:29;;;;;;;6.75;4.43;;;;;;;21.78;31.66;100932.75;5051787;28;20148;-86
2021/04/24 13:37:34;;;;;;;8.80;4.50;;;;;;;21.86;31.11;100921.72;5032108;28;20052;-86
2021/04/24 13:40:39;;;;;;;8.25;4.70;;;;;;;21.83;31.18;100925.66;5043286;28;20447;-86
2021/04/24 13:43:43;;;;;;;7.05;4.57;;;;;;;21.83;31.69;100919.34;5043301;28;20048;-86
2021/04/24 13:46:50;;;;;;;11.32;4.40;;;;;;;21.91;31.71;100902.88;5042294;28;20071;-86
2021/04/24 13:49:54;;;;;;;7.88;4.53;;;;;;;21.98;31.54;100904.63;5034546;28;20149;-86
2021/04/24 13:52:58;;;;;;;12.05;4.65;;;;;;;22.02;31.84;100897.72;5035446;28;20052;-88
2021/04/24 13:56:03;;;;;;;8.57;4.10;;;;;;;22.23;31.10;100893.28;5071815;27;20054;-85
2021/04/24 13:59:09;;;;;;;6.72;4.90;;;;;;;22.00;31.02;100891.59;5144879;27;20050;-84
2021/04/24 14:02:15;;;;;;;6.70;4.75;;;;;;;21.98;31.23;100892.84;5142578;27;20405;-84
2021/04/24 14:05:19;;;;;;;6.40;4.05;;;;;;;22.07;31.00;100894.41;5127141;27;20046;-81
2021/04/24 14:08:23;;;;;;;6.70;4.88;;;;;;;22.01;30.26;100887.00;5130016;27;20133;-81
2021/04/24 14:11:28;;;;;;;6.57;4.65;;;;;;;22.00;30.61;100888.00;5142625;27;20053;-81
2021/04/24 14:14:33;;;;;;;7.35;4.72;;;;;;;22.00;30.66;100875.19;5146022;27;20038;-80
2021/04/24 14:17:37;;;;;;;6.85;4.18;;;;;;;22.05;30.86;100869.13;5122377;27;20050;-80
2021/04/24 14:20:43;;;;;;;7.45;4.05;;;;;;;22.10;31.22;100865.84;5134987;27;20038;-80
2021/04/24 14:23:57;;;;;;;7.25;4.28;;;;;;;22.11;30.77;100865.63;5136837;27;20053;-80
2021/04/24 14:27:02;;;;;;;22.85;18.70;;;;;;;22.20;31.24;100864.44;5136054;27;20061;-80